Time;durP1;ratioP1;P1;durP2;ratioP2;P2;SDS_P1;SDS_P2;PMS_P1;PMS_P2;Temp;Humidity;BMP_temperature;BMP_pressure;BME280_temperature;BME280_humidity;BME280_pressure;Samples;Min_cycle;Max_cycle;Signal;HPM_P1;HPM_P2
2022/09/16 00:01:24;;;;;;;13.55;2.45;;;;;;;11.57;100.00;100946.13;4979187;28;20050;-68
2022/09/16 00:03:54;;;;;;;18.00;2.50;;;;;;;11.58;100.00;100939.81;4975467;28;20041;-69
2022/09/16 00:06:25;;;;;;;11.05;1.73;;;;;;;11.73;100.00;100942.44;4971814;28;20061;-69
2022/09/16 00:08:52;;;;;;;7.20;1.67;;;;;;;11.66;100.00;100936.66;4976198;28;20043;-70
2022/09/16 00:11:18;;;;;;;9.57;1.73;;;;;;;11.75;100.00;100943.22;4975115;28;20038;-69
2022/09/16 00:13:45;;;;;;;8.48;2.33;;;;;;;11.82;100.00;100931.16;4971085;28;20049;-69
2022/09/16 00:16:20;;;;;;;3.17;1.58;;;;;;;11.87;100.00;100937.91;4974658;28;20129;-69
2022/09/16 00:18:45;;;;;;;10.20;1.90;;;;;;;11.92;100.00;100945.63;4971780;28;20130;-70
2022/09/16 00:21:11;;;;;;;5.03;1.42;;;;;;;11.97;100.00;100937.31;4969552;28;20137;-69
2022/09/16 00:23:37;;;;;;;9.98;2.15;;;;;;;11.96;100.00;100943.59;4968806;28;20045;-70
2022/09/16 00:26:03;;;;;;;5.10;1.70;;;;;;;12.02;100.00;100944.03;4973503;28;20121;-69
2022/09/16 00:28:29;;;;;;;7.60;1.60;;;;;;;12.08;100.00;100951.63;4967854;28;20034;-70
2022/09/16 00:30:59;;;;;;;6.78;1.40;;;;;;;12.08;100.00;100943.63;4971235;28;20038;-69
2022/09/16 00:33:24;;;;;;;11.00;3.35;;;;;;;12.10;100.00;100940.88;4981991;28;20129;-70
2022/09/16 00:35:50;;;;;;;7.22;2.08;;;;;;;12.09;100.00;100947.16;4972962;28;20054;-70
2022/09/16 00:38:15;;;;;;;5.43;1.85;;;;;;;12.18;100.00;100941.19;4964979;28;20294;-69
2022/09/16 00:40:47;;;;;;;4.95;1.60;;;;;;;12.26;100.00;100946.00;4974662;28;20069;-70
2022/09/16 00:43:14;;;;;;;8.45;2.60;;;;;;;12.26;100.00;100940.66;4970682;28;20031;-69
2022/09/16 00:45:40;;;;;;;5.65;1.58;;;;;;;12.32;100.00;100945.59;4968059;28;20096;-70
2022/09/16 00:48:09;;;;;;;4.70;1.35;;;;;;;12.36;100.00;100947.09;4974276;28;20058;-69
2022/09/16 00:50:40;;;;;;;4.78;1.88;;;;;;;12.37;100.00;100941.63;4982338;28;20050;-68
2022/09/16 00:53:14;;;;;;;8.70;1.83;;;;;;;12.35;100.00;100945.34;4967472;28;20126;-69
2022/09/16 00:55:42;;;;;;;6.88;1.45;;;;;;;12.41;100.00;100948.47;4973835;28;20438;-70
2022/09/16 00:58:24;;;;;;;9.50;1.50;;;;;;;12.38;100.00;100946.00;4974850;28;20130;-69
2022/09/16 01:00:49;;;;;;;7.85;1.48;;;;;;;12.42;100.00;100943.97;4972795;28;20062;-69
2022/09/16 01:03:16;;;;;;;5.57;1.52;;;;;;;12.43;100.00;100945.69;4968447;28;20086;-70
2022/09/16 01:05:42;;;;;;;7.15;1.70;;;;;;;12.47;100.00;100943.66;4972320;28;20094;-68
2022/09/16 01:08:08;;;;;;;3.22;1.23;;;;;;;12.44;100.00;100940.22;4978888;28;20035;-69
2022/09/16 01:10:34;;;;;;;5.95;2.22;;;;;;;12.46;100.00;100942.81;4975797;28;20505;-69
2022/09/16 01:13:05;;;;;;;7.65;1.70;;;;;;;12.54;100.00;100942.25;4972355;28;20053;-69
2022/09/16 01:15:41;;;;;;;6.38;1.98;;;;;;;12.39;100.00;100930.81;4982228;28;20114;-68
2022/09/16 01:18:34;;;;;;;7.40;1.38;;;;;;;12.41;100.00;100924.41;4972306;28;20039;-69
2022/09/16 01:21:13;;;;;;;7.70;2.45;;;;;;;12.39;100.00;100922.78;4970391;28;20053;-69
2022/09/16 01:24:06;;;;;;;4.57;1.70;;;;;;;12.34;100.00;100925.78;4978038;28;20042;-70
2022/09/16 01:27:04;;;;;;;6.15;1.67;;;;;;;12.33;100.00;100921.41;4969919;28;20039;-70
2022/09/16 01:29:47;;;;;;;3.40;1.70;;;;;;;12.27;100.00;100923.66;4976478;28;20042;-69
2022/09/16 01:32:28;;;;;;;6.75;2.35;;;;;;;12.31;100.00;100917.13;4987921;28;20062;-69
2022/09/16 01:35:07;;;;;;;5.15;1.85;;;;;;;12.29;100.00;100925.25;4973730;28;20030;-69
2022/09/16 01:38:03;;;;;;;3.30;1.20;;;;;;;12.25;100.00;100921.09;4976513;28;20089;-70
2022/09/16 01:41:05;;;;;;;9.10;1.60;;;;;;;12.20;100.00;100920.56;4975890;28;20053;-69
2022/09/16 01:43:56;;;;;;;6.43;2.00;;;;;;;12.25;100.00;100923.78;4978442;28;20042;-70
2022/09/16 01:46:47;;;;;;;6.03;1.42;;;;;;;12.23;100.00;100925.66;4969675;28;20165;-69
2022/09/16 01:49:51;;;;;;;5.25;1.50;;;;;;;12.22;100.00;100932.00;4972930;28;20047;-69
2022/09/16 01:52:57;;;;;;;6.43;1.40;;;;;;;12.19;100.00;100927.69;4961577;28;20811;-69
2022/09/16 01:55:29;;;;;;;9.50;1.52;;;;;;;12.18;100.00;100919.78;4886533;29;20601;-71
2022/09/16 01:58:01;;;;;;;6.95;2.08;;;;;;;12.20;100.00;100925.91;4888664;29;20055;-69
2022/09/16 02:00:27;;;;;;;7.32;2.00;;;;;;;12.14;100.00;100924.47;4887975;29;20076;-68
2022/09/16 02:03:02;;;;;;;12.73;1.50;;;;;;;12.16;100.00;100925.25;4888975;29;20052;-70
2022/09/16 02:05:34;;;;;;;7.50;2.13;;;;;;;12.21;100.00;100929.44;4892032;29;20064;-68
2022/09/16 02:08:13;;;;;;;6.10;1.27;;;;;;;12.19;100.00;100921.50;4894543;29;20652;-72
2022/09/16 02:10:42;;;;;;;7.68;1.40;;;;;;;12.17;100.00;100915.41;4893817;29;20488;-72
2022/09/16 02:13:16;;;;;;;3.70;1.30;;;;;;;12.17;100.00;100924.28;4893884;29;20222;-68
2022/09/16 02:15:47;;;;;;;6.85;1.35;;;;;;;12.13;100.00;100919.25;4893885;29;20112;-68
2022/09/16 02:18:18;;;;;;;7.65;1.50;;;;;;;12.16;100.00;100916.38;4892328;29;20048;-70
2022/09/16 02:20:46;;;;;;;4.25;1.13;;;;;;;12.15;100.00;100917.34;4892422;29;20089;-68
2022/09/16 02:23:16;;;;;;;4.63;1.50;;;;;;;12.10;100.00;100920.34;4889914;29;20044;-68
2022/09/16 02:25:45;;;;;;;5.82;1.25;;;;;;;12.07;100.00;100919.69;4874471;29;20067;-67
2022/09/16 02:28:15;;;;;;;5.55;1.75;;;;;;;11.98;100.00;100918.47;4917278;29;20340;-68
2022/09/16 02:30:44;;;;;;;10.65;2.00;;;;;;;11.98;100.00;100915.81;4911119;29;20047;-69
2022/09/16 02:33:12;;;;;;;6.95;1.63;;;;;;;11.89;100.00;100925.28;4972864;28;20050;-69
2022/09/16 02:35:40;;;;;;;9.52;1.88;;;;;;;11.88;100.00;100923.59;4975229;28;20088;-69
2022/09/16 02:38:16;;;;;;;8.10;1.45;;;;;;;11.91;100.00;100928.75;4972603;28;20549;-69
2022/09/16 02:40:54;;;;;;;7.15;1.90;;;;;;;11.90;100.00;100923.50;4979702;28;20066;-67
2022/09/16 02:43:21;;;;;;;6.72;1.92;;;;;;;11.91;100.00;100925.22;4976817;28;20034;-69
2022/09/16 02:45:56;;;;;;;8.57;2.22;;;;;;;11.84;100.00;100919.41;4971925;28;20042;-67
2022/09/16 02:48:41;;;;;;;4.28;1.67;;;;;;;11.88;100.00;100922.72;4976714;28;20046;-69
2022/09/16 02:51:41;;;;;;;10.73;1.70;;;;;;;11.81;100.00;100916.94;4970141;28;20047;-68
2022/09/16 02:54:39;;;;;;;3.80;1.45;;;;;;;11.79;100.00;100916.16;4974323;28;20066;-69
2022/09/16 02:57:05;;;;;;;7.32;1.80;;;;;;;11.78;100.00;100913.59;4976116;28;20050;-69
2022/09/16 02:59:31;;;;;;;3.95;1.80;;;;;;;11.82;100.00;100917.81;4990088;28;20574;-73
2022/09/16 03:01:58;;;;;;;7.68;1.50;;;;;;;11.83;100.00;100914.19;4971953;28;20039;-69
2022/09/16 03:04:23;;;;;;;6.43;1.67;;;;;;;11.87;100.00;100910.34;4980429;28;20089;-70
2022/09/16 03:06:49;;;;;;;8.85;2.63;;;;;;;11.89;100.00;100919.09;4976664;28;20046;-69
2022/09/16 03:09:17;;;;;;;5.88;1.73;;;;;;;11.93;100.00;100909.91;4973374;28;20609;-70
2022/09/16 03:12:21;;;;;;;4.13;1.50;;;;;;;11.98;100.00;100918.47;4970538;28;20053;-70
2022/09/16 03:15:10;;;;;;;6.68;1.80;;;;;;;11.96;100.00;100904.38;4970446;28;20439;-71
2022/09/16 03:18:03;;;;;;;8.05;1.40;;;;;;;11.95;100.00;100905.34;4975143;28;20668;-71
2022/09/16 03:20:30;;;;;;;12.23;2.50;;;;;;;12.03;100.00;100911.00;4969699;28;20399;-70
2022/09/16 03:22:59;;;;;;;7.43;2.03;;;;;;;12.02;100.00;100903.09;4982442;28;20117;-69
2022/09/16 03:25:38;;;;;;;6.25;2.22;;;;;;;12.00;100.00;100905.88;4968527;28;20058;-69
2022/09/16 03:28:10;;;;;;;10.38;1.42;;;;;;;11.99;100.00;100906.81;4982237;28;20070;-69
2022/09/16 03:30:45;;;;;;;5.38;2.03;;;;;;;11.96;100.00;100909.72;4986471;28;20034;-69
2022/09/16 03:33:33;;;;;;;5.00;1.63;;;;;;;11.96;100.00;100908.88;4968805;28;20050;-69
2022/09/16 03:36:04;;;;;;;6.95;2.03;;;;;;;11.96;100.00;100907.06;4969997;28;20054;-69
2022/09/16 03:38:32;;;;;;;13.05;2.58;;;;;;;11.97;100.00;100907.91;4976425;28;20042;-69
2022/09/16 03:40:58;;;;;;;5.70;2.30;;;;;;;11.93;100.00;100905.44;4969545;28;20038;-68
2022/09/16 03:43:23;;;;;;;6.72;1.60;;;;;;;11.90;100.00;100907.47;4972754;28;20105;-69
2022/09/16 03:45:50;;;;;;;6.88;1.80;;;;;;;12.00;100.00;100913.03;4977609;28;20821;-69
2022/09/16 03:48:15;;;;;;;6.38;1.50;;;;;;;11.93;100.00;100907.25;4979078;28;20035;-69
2022/09/16 03:50:41;;;;;;;8.05;1.83;;;;;;;11.93;100.00;100904.56;4974844;28;20066;-70
2022/09/16 03:53:06;;;;;;;8.43;1.50;;;;;;;11.99;100.00;100900.63;4977196;28;20058;-70
2022/09/16 03:55:32;;;;;;;5.50;1.63;;;;;;;11.90;100.00;100904.81;4982437;28;20034;-69
2022/09/16 03:57:57;;;;;;;9.27;1.40;;;;;;;11.85;100.00;100909.59;4969953;28;20054;-69
2022/09/16 04:00:23;;;;;;;4.85;2.03;;;;;;;11.80;100.00;100903.69;4980820;28;20046;-69
2022/09/16 04:02:48;;;;;;;10.13;1.95;;;;;;;11.77;100.00;100903.88;4972714;28;20038;-69
2022/09/16 04:05:14;;;;;;;8.43;1.50;;;;;;;11.75;100.00;100898.66;4980657;28;20466;-69
2022/09/16 04:07:39;;;;;;;7.97;1.75;;;;;;;11.76;100.00;100903.03;4984376;28;20043;-68
2022/09/16 04:10:05;;;;;;;9.07;1.40;;;;;;;11.80;100.00;100901.00;4968370;28;20054;-68
2022/09/16 04:12:31;;;;;;;5.65;1.48;;;;;;;11.78;100.00;100894.88;4971318;28;20062;-69
2022/09/16 04:14:56;;;;;;;6.88;1.63;;;;;;;11.78;100.00;100884.22;4974837;28;20781;-70
2022/09/16 04:17:22;;;;;;;9.05;2.85;;;;;;;11.86;100.00;100893.47;4979828;28;20394;-71
2022/09/16 04:19:48;;;;;;;3.72;1.20;;;;;;;11.84;100.00;100886.50;4971816;28;20081;-69
2022/09/16 04:22:14;;;;;;;4.70;1.83;;;;;;;11.80;100.00;100877.81;4968170;28;20055;-68
2022/09/16 04:24:39;;;;;;;4.60;1.40;;;;;;;11.83;100.00;100880.28;4969631;28;20558;-69
2022/09/16 04:27:05;;;;;;;10.10;2.28;;;;;;;11.84;100.00;100878.47;4976700;28;20041;-68
2022/09/16 04:29:31;;;;;;;4.05;2.28;;;;;;;11.94;100.00;100887.56;4975316;28;20051;-69
2022/09/16 04:31:57;;;;;;;5.00;1.73;;;;;;;11.91;100.00;100888.66;4983850;28;20042;-68
2022/09/16 04:34:22;;;;;;;3.08;1.30;;;;;;;11.91;100.00;100893.16;4979750;28;20130;-68
2022/09/16 04:36:48;;;;;;;6.70;1.35;;;;;;;11.95;100.00;100891.09;4977176;28;20407;-69
2022/09/16 04:39:13;;;;;;;9.10;1.77;;;;;;;11.96;100.00;100900.84;4979414;28;20046;-69
2022/09/16 04:41:39;;;;;;;7.20;1.40;;;;;;;11.92;100.00;100906.41;4975916;28;20038;-70
2022/09/16 04:44:04;;;;;;;4.50;2.42;;;;;;;11.92;100.00;100898.38;4978170;28;20145;-69
2022/09/16 04:46:31;;;;;;;9.10;1.60;;;;;;;11.91;100.00;100898.50;4974910;28;20038;-70
2022/09/16 04:48:58;;;;;;;8.52;1.60;;;;;;;11.87;100.00;100894.31;4977688;28;20030;-67
2022/09/16 04:51:26;;;;;;;3.92;1.40;;;;;;;11.87;100.00;100896.97;4972108;28;20105;-69
2022/09/16 04:53:53;;;;;;;5.28;2.00;;;;;;;11.82;100.00;100891.09;4981489;28;20050;-68
2022/09/16 04:56:21;;;;;;;6.47;1.58;;;;;;;11.84;100.00;100895.34;4978465;28;20034;-69
2022/09/16 04:58:49;;;;;;;7.28;1.65;;;;;;;11.83;100.00;100893.66;4979986;28;20038;-69
2022/09/16 05:01:17;;;;;;;4.60;2.20;;;;;;;11.87;100.00;100905.84;4993119;28;20042;-69
2022/09/16 05:03:44;;;;;;;14.38;2.35;;;;;;;11.83;100.00;100900.81;4979743;28;20049;-70
2022/09/16 05:06:15;;;;;;;8.98;1.83;;;;;;;11.84;100.00;100905.19;4986220;28;20738;-69
2022/09/16 05:08:41;;;;;;;8.00;1.80;;;;;;;11.88;100.00;100899.53;4976445;28;20046;-69
2022/09/16 05:11:12;;;;;;;5.82;1.58;;;;;;;11.81;100.00;100905.38;4972990;28;20041;-69
2022/09/16 05:13:38;;;;;;;7.13;1.80;;;;;;;11.76;100.00;100902.16;4973695;28;20053;-68
2022/09/16 05:16:06;;;;;;;5.20;2.10;;;;;;;11.73;100.00;100895.19;4980336;28;20046;-70
2022/09/16 05:18:33;;;;;;;10.50;2.15;;;;;;;11.76;100.00;100903.03;4995998;28;20039;-69
2022/09/16 05:21:00;;;;;;;6.40;2.00;;;;;;;11.81;100.00;100898.22;4979752;28;20110;-71
2022/09/16 05:23:26;;;;;;;5.70;1.90;;;;;;;11.76;100.00;100903.03;4981621;28;20038;-69
2022/09/16 05:25:52;;;;;;;11.35;1.85;;;;;;;11.79;100.00;100904.63;4976775;28;20276;-69
2022/09/16 05:28:18;;;;;;;11.00;2.17;;;;;;;11.84;100.00;100906.03;4971220;28;20130;-71
2022/09/16 05:30:44;;;;;;;6.22;1.92;;;;;;;11.88;100.00;100912.91;4980303;28;20117;-67
2022/09/16 05:33:09;;;;;;;6.28;2.15;;;;;;;11.83;100.00;100908.81;4977324;28;20074;-70
2022/09/16 05:35:34;;;;;;;8.30;2.08;;;;;;;11.84;100.00;100905.19;4975076;28;20573;-70
2022/09/16 05:38:00;;;;;;;8.48;2.35;;;;;;;11.78;100.00;100911.78;4974101;28;20054;-69
2022/09/16 05:40:28;;;;;;;4.43;1.55;;;;;;;11.77;100.00;100910.06;4975348;28;20043;-72
2022/09/16 05:42:54;;;;;;;8.88;1.75;;;;;;;11.77;100.00;100915.41;4977668;28;20034;-70
2022/09/16 05:45:20;;;;;;;1.58;1.20;;;;;;;11.73;100.00;100915.72;4978350;28;20034;-70
2022/09/16 05:47:48;;;;;;;9.27;2.40;;;;;;;11.72;100.00;100916.69;4972803;28;20039;-70
2022/09/16 05:50:14;;;;;;;3.40;1.75;;;;;;;11.77;100.00;100917.22;4966428;28;20046;-69
2022/09/16 05:52:39;;;;;;;10.60;2.50;;;;;;;11.77;100.00;100914.56;4974311;28;20130;-74
2022/09/16 05:55:05;;;;;;;4.00;1.70;;;;;;;11.77;100.00;100917.22;4971426;28;20054;-69
2022/09/16 05:57:31;;;;;;;5.22;1.38;;;;;;;11.73;100.00;100916.56;4970003;28;20054;-67
2022/09/16 05:59:56;;;;;;;3.67;1.50;;;;;;;11.71;100.00;100920.31;4971554;28;20042;-68
2022/09/16 06:02:22;;;;;;;8.75;2.20;;;;;;;11.71;100.00;100920.31;4971277;28;20038;-69
2022/09/16 06:04:47;;;;;;;7.45;1.70;;;;;;;11.70;100.00;100921.25;4975803;28;20034;-71
2022/09/16 06:07:13;;;;;;;7.60;1.60;;;;;;;11.59;100.00;100922.81;4978603;28;20042;-70
2022/09/16 06:09:38;;;;;;;5.25;1.48;;;;;;;11.72;100.00;100919.34;4972864;28;20398;-70
2022/09/16 06:12:04;;;;;;;8.90;1.63;;;;;;;11.67;100.00;100923.19;4972162;28;20746;-70
2022/09/16 06:14:29;;;;;;;6.57;1.75;;;;;;;11.70;100.00;100922.13;4975306;28;20597;-69
2022/09/16 06:16:55;;;;;;;3.97;1.33;;;;;;;11.76;100.00;100919.06;4974210;28;20117;-69
2022/09/16 06:19:21;;;;;;;8.43;2.13;;;;;;;11.83;100.00;100922.19;4970499;28;20078;-70
2022/09/16 06:21:47;;;;;;;9.73;1.73;;;;;;;11.80;100.00;100931.25;4978772;28;20046;-70
2022/09/16 06:24:14;;;;;;;4.70;1.60;;;;;;;11.90;100.00;100932.38;4972096;28;20038;-71
2022/09/16 06:26:42;;;;;;;9.15;1.30;;;;;;;12.02;100.00;100935.16;4981648;28;20577;-68
2022/09/16 06:29:08;;;;;;;4.05;1.35;;;;;;;12.19;100.00;100935.72;4963463;28;20050;-69
2022/09/16 06:31:35;;;;;;;6.25;1.75;;;;;;;12.43;100.00;100937.66;4973964;28;20042;-68
2022/09/16 06:34:01;;;;;;;7.18;1.40;;;;;;;12.73;100.00;100948.03;4972846;28;20043;-68
2022/09/16 06:36:29;;;;;;;6.03;1.10;;;;;;;13.07;100.00;100938.47;4972817;28;20050;-70
2022/09/16 06:38:54;;;;;;;6.07;1.10;;;;;;;13.42;100.00;100938.59;4977761;28;20053;-67
2022/09/16 06:41:20;;;;;;;6.80;1.35;;;;;;;13.61;100.00;100937.25;4985851;28;20204;-70
2022/09/16 06:43:47;;;;;;;5.05;1.20;;;;;;;13.94;100.00;100934.69;4969955;28;20097;-69
2022/09/16 06:46:18;;;;;;;1.75;1.00;;;;;;;13.85;100.00;100929.16;4970143;28;20505;-70
2022/09/16 06:48:46;;;;;;;4.32;1.13;;;;;;;13.83;100.00;100931.09;4974278;28;20142;-69
2022/09/16 06:51:21;;;;;;;5.78;1.58;;;;;;;13.60;100.00;100939.03;4963816;28;20415;-69
2022/09/16 06:53:47;;;;;;;4.97;1.27;;;;;;;13.24;100.00;100947.13;4969121;28;20030;-69
2022/09/16 06:56:15;;;;;;;4.72;1.25;;;;;;;13.71;100.00;100933.75;4974934;28;20034;-70
2022/09/16 06:58:46;;;;;;;5.07;1.00;;;;;;;14.04;100.00;100937.50;4981765;28;20046;-69
2022/09/16 07:01:14;;;;;;;3.35;1.20;;;;;;;14.47;100.00;100929.72;4974541;28;20050;-68
2022/09/16 07:03:42;;;;;;;2.08;0.90;;;;;;;14.74;98.50;100925.84;4977301;28;20034;-69
2022/09/16 07:06:09;;;;;;;6.28;1.40;;;;;;;14.95;95.81;100928.63;4979709;28;20047;-69
2022/09/16 07:08:41;;;;;;;2.75;1.17;;;;;;;15.42;93.38;100927.47;4971850;28;20125;-70
2022/09/16 07:11:12;;;;;;;6.30;1.30;;;;;;;15.41;94.32;100930.25;4976228;28;20037;-69
2022/09/16 07:13:38;;;;;;;6.30;1.35;;;;;;;15.35;93.07;100933.44;4971073;28;20065;-68
2022/09/16 07:16:10;;;;;;;3.70;1.23;;;;;;;15.95;89.25;100932.06;4978050;28;20049;-68
2022/09/16 07:18:35;;;;;;;5.07;1.45;;;;;;;15.69;88.73;100929.72;4989075;28;20035;-72
2022/09/16 07:21:06;;;;;;;3.47;1.35;;;;;;;16.44;87.59;100919.78;4996197;28;20092;-70
2022/09/16 07:23:33;;;;;;;5.57;1.17;;;;;;;16.02;88.58;100930.56;4979344;28;20043;-70
2022/09/16 07:26:05;;;;;;;2.88;0.98;;;;;;;16.69;85.01;100929.25;4974780;28;20116;-69
2022/09/16 07:28:31;;;;;;;3.40;0.90;;;;;;;17.31;83.45;100925.53;4969860;28;20058;-69
2022/09/16 07:31:01;;;;;;;6.80;1.40;;;;;;;17.00;83.11;100920.19;4973243;28;20037;-71
2022/09/16 07:33:27;;;;;;;6.32;1.30;;;;;;;16.96;84.47;100916.06;4968438;28;20042;-67
2022/09/16 07:35:57;;;;;;;4.13;1.10;;;;;;;16.45;84.49;100924.16;4978433;28;20054;-69
2022/09/16 07:38:22;;;;;;;1.52;0.95;;;;;;;16.95;84.25;100924.28;4975250;28;20045;-68
2022/09/16 07:40:48;;;;;;;10.40;1.15;;;;;;;16.93;83.15;100919.06;4973956;28;20047;-69
2022/09/16 07:43:13;;;;;;;4.43;1.25;;;;;;;16.75;84.45;100931.44;4977060;28;20046;-68
2022/09/16 07:45:39;;;;;;;3.83;1.10;;;;;;;17.07;85.20;100932.16;4972382;28;20042;-69
2022/09/16 07:48:05;;;;;;;10.38;1.85;;;;;;;17.47;80.57;100933.06;4974188;28;20043;-69
2022/09/16 07:50:30;;;;;;;4.05;1.75;;;;;;;17.83;79.35;100921.66;4973684;28;20042;-68
2022/09/16 07:52:55;;;;;;;9.38;1.75;;;;;;;17.01;84.21;100937.22;4968579;28;20085;-69
2022/09/16 07:55:21;;;;;;;3.53;1.05;;;;;;;16.57;83.80;100941.97;4969434;28;20046;-69
2022/09/16 07:57:46;;;;;;;6.53;1.70;;;;;;;15.66;89.70;100937.19;4965217;28;20045;-69
2022/09/16 08:00:12;;;;;;;11.18;2.70;;;;;;;15.48;89.68;100948.44;4967390;28;20038;-69
2022/09/16 08:02:37;;;;;;;7.63;1.10;;;;;;;15.45;88.28;100942.47;4963871;28;20280;-69
2022/09/16 08:05:03;;;;;;;15.75;2.63;;;;;;;15.64;89.19;100945.38;4972055;28;20049;-70
2022/09/16 08:07:29;;;;;;;6.18;1.10;;;;;;;16.48;84.22;100946.31;4967197;28;20046;-70
2022/09/16 08:09:54;;;;;;;3.75;0.73;;;;;;;16.33;86.96;100944.94;4971720;28;20045;-71
2022/09/16 08:12:20;;;;;;;6.32;1.30;;;;;;;16.26;88.04;100943.75;4978637;28;20513;-70
2022/09/16 08:14:45;;;;;;;2.70;1.10;;;;;;;16.19;86.47;100956.03;4976102;28;20047;-71
2022/09/16 08:17:11;;;;;;;2.88;0.73;;;;;;;15.76;85.58;100955.13;4972335;28;20043;-69
2022/09/16 08:19:38;;;;;;;6.63;1.20;;;;;;;16.06;86.54;100953.50;4971601;28;20050;-69
2022/09/16 08:22:03;;;;;;;4.05;0.90;;;;;;;16.13;87.60;100954.72;4967216;28;20104;-73
2022/09/16 08:24:29;;;;;;;3.63;1.00;;;;;;;16.21;82.82;100962.13;4990736;28;20387;-70
2022/09/16 08:26:55;;;;;;;4.38;0.85;;;;;;;16.28;81.69;100961.47;4987380;28;20757;-72
2022/09/16 08:29:21;;;;;;;7.35;1.17;;;;;;;16.86;78.45;100957.44;4979097;28;20042;-71
2022/09/16 08:31:46;;;;;;;3.58;0.93;;;;;;;16.62;78.23;100963.97;4971649;28;20452;-72
2022/09/16 08:34:12;;;;;;;5.40;0.95;;;;;;;16.30;80.40;100956.81;4970664;28;20042;-71
2022/09/16 08:36:38;;;;;;;6.00;1.00;;;;;;;16.13;79.83;100965.47;4973148;28;20054;-72
2022/09/16 08:39:03;;;;;;;5.93;1.20;;;;;;;15.77;82.29;100964.91;4966027;28;20471;-72
2022/09/16 08:41:47;;;;;;;9.82;0.80;;;;;;;15.48;84.30;100969.09;4970920;28;20128;-71
2022/09/16 08:44:52;;;;;;;5.53;1.30;;;;;;;15.43;82.43;100965.94;4965131;28;20042;-71
2022/09/16 08:47:44;;;;;;;7.50;1.40;;;;;;;16.38;78.98;100963.38;4970404;28;20541;-72
2022/09/16 08:50:30;;;;;;;4.10;0.70;;;;;;;16.32;75.71;100970.16;4976844;28;20038;-71
2022/09/16 08:52:58;;;;;;;6.85;0.93;;;;;;;16.24;76.64;100968.09;4966423;28;20078;-71
2022/09/16 08:55:31;;;;;;;2.13;0.77;;;;;;;16.25;77.58;100963.56;4976807;28;20667;-72
2022/09/16 08:58:01;;;;;;;2.33;0.70;;;;;;;16.13;75.86;100964.63;4970084;28;20082;-72
2022/09/16 09:00:28;;;;;;;6.43;1.30;;;;;;;16.52;75.57;100965.75;4973813;28;20100;-72
2022/09/16 09:02:55;;;;;;;7.65;0.90;;;;;;;16.44;77.34;100962.84;4970774;28;20031;-72
2022/09/16 09:05:24;;;;;;;2.45;0.50;;;;;;;16.58;74.20;100957.13;4973140;28;20130;-71
2022/09/16 09:08:28;;;;;;;5.97;1.25;;;;;;;16.95;72.92;100959.31;4967549;28;20031;-73
2022/09/16 09:10:56;;;;;;;4.88;1.10;;;;;;;16.52;73.87;100954.97;4970100;28;20030;-72
2022/09/16 09:13:39;;;;;;;11.20;1.67;;;;;;;16.67;74.99;100958.19;4969242;28;20054;-74
2022/09/16 09:16:30;;;;;;;;;;;;;;;16.21;75.77;100959.44;4964454;28;20085;-73
2022/09/16 09:19:14;;;;;;;4.38;1.35;;;;;;;16.56;73.62;100959.94;4969981;28;20473;-72
2022/09/16 09:21:39;;;;;;;4.03;1.20;;;;;;;17.02;70.41;100953.25;4966854;28;20042;-72
2022/09/16 09:24:20;;;;;;;8.70;1.83;;;;;;;17.27;71.19;100956.44;4966177;28;20202;-73
2022/09/16 09:26:49;;;;;;;2.75;1.00;;;;;;;16.83;69.34;100959.41;4974406;28;20715;-72
2022/09/16 09:29:36;;;;;;;6.53;1.25;;;;;;;16.82;71.56;100959.56;4967680;28;20026;-72
2022/09/16 09:32:31;;;;;;;9.93;1.02;;;;;;;16.99;71.37;100960.75;4965372;28;20811;-73
2022/09/16 09:35:13;;;;;;;6.75;1.08;;;;;;;16.42;74.19;100962.13;4965194;28;20126;-73
2022/09/16 09:38:09;;;;;;;2.72;0.77;;;;;;;15.73;72.08;100968.81;4962587;28;20089;-73
2022/09/16 09:40:53;;;;;;;6.38;0.75;;;;;;;15.49;73.17;100970.81;4971172;28;20038;-73
2022/09/16 09:43:42;;;;;;;2.88;0.73;;;;;;;16.33;74.54;100961.09;4969556;28;20066;-73
2022/09/16 09:46:17;;;;;;;4.60;0.88;;;;;;;16.55;69.35;100952.00;4967143;28;20053;-75
2022/09/16 09:49:15;;;;;;;5.07;0.77;;;;;;;16.60;65.69;100960.53;4971009;28;20059;-73
2022/09/16 09:52:00;;;;;;;8.13;1.10;;;;;;;16.73;66.61;100961.22;4971767;28;20079;-72
2022/09/16 09:54:36;;;;;;;6.63;1.35;;;;;;;17.46;67.84;100963.72;4964072;28;20047;-72
2022/09/16 09:57:09;;;;;;;3.53;0.95;;;;;;;17.33;65.77;100959.47;4970282;28;20145;-73
2022/09/16 09:59:35;;;;;;;2.50;0.65;;;;;;;17.35;61.64;100962.00;4962768;28;20043;-74
2022/09/16 10:02:00;;;;;;;4.22;1.52;;;;;;;17.70;62.18;100955.25;4968578;28;20709;-75
2022/09/16 10:04:36;;;;;;;3.83;1.25;;;;;;;17.83;62.28;100947.78;4964366;28;20114;-73
2022/09/16 10:07:02;;;;;;;5.03;0.80;;;;;;;18.03;62.67;100948.63;4975099;28;20054;-73
2022/09/16 10:09:27;;;;;;;2.35;0.50;;;;;;;17.72;57.14;100951.44;4973329;28;20065;-74
2022/09/16 10:11:55;;;;;;;2.50;0.77;;;;;;;17.74;58.15;100937.84;4973401;28;20118;-73
2022/09/16 10:14:31;;;;;;;4.70;0.82;;;;;;;17.77;59.53;100953.72;4966319;28;20050;-73
2022/09/16 10:17:01;;;;;;;4.03;1.08;;;;;;;18.17;60.34;100931.97;4969219;28;20593;-74
2022/09/16 10:19:30;;;;;;;3.80;0.77;;;;;;;17.47;59.46;100946.56;4969240;28;20130;-73
2022/09/16 10:22:10;;;;;;;3.80;0.63;;;;;;;17.32;59.78;100949.66;4975766;28;20054;-74
2022/09/16 10:24:41;;;;;;;2.22;0.80;;;;;;;17.15;59.80;100942.22;4970736;28;20118;-74
2022/09/16 10:27:34;;;;;;;4.07;0.80;;;;;;;17.75;58.57;100940.38;4972625;28;20070;-73
2022/09/16 10:30:18;;;;;;;1.50;0.77;;;;;;;17.86;59.46;100942.94;4976541;28;20045;-74
2022/09/16 10:33:03;;;;;;;3.08;0.77;;;;;;;17.59;59.93;100953.53;4975256;28;20042;-73
2022/09/16 10:35:31;;;;;;;1.83;0.75;;;;;;;18.01;60.80;100953.31;4968613;28;20062;-74
2022/09/16 10:38:00;;;;;;;3.60;1.05;;;;;;;17.73;56.94;100950.47;4967527;28;20041;-74
2022/09/16 10:40:26;;;;;;;3.35;0.77;;;;;;;17.47;56.96;100954.63;4973834;28;20050;-74
2022/09/16 10:42:55;;;;;;;3.35;0.80;;;;;;;17.52;59.50;100950.56;4978098;28;20053;-74
2022/09/16 10:45:36;;;;;;;1.50;0.43;;;;;;;17.66;61.62;100938.50;4980105;28;20041;-74
2022/09/16 10:48:10;;;;;;;3.13;0.68;;;;;;;17.54;60.58;100942.31;4973394;28;20057;-74
2022/09/16 10:50:35;;;;;;;14.95;1.75;;;;;;;16.89;64.66;100946.41;4974597;28;20050;-74
2022/09/16 10:53:01;;;;;;;2.30;0.63;;;;;;;16.58;64.45;100957.13;4975916;28;20057;-74
2022/09/16 10:55:34;;;;;;;3.88;0.90;;;;;;;16.33;64.98;100949.47;4970152;28;20026;-73
2022/09/16 10:58:29;;;;;;;6.82;0.77;;;;;;;16.82;67.21;100943.41;4971757;28;20085;-73
2022/09/16 11:01:23;;;;;;;5.43;1.00;;;;;;;16.52;61.24;100949.59;4969343;28;20843;-74
2022/09/16 11:03:57;;;;;;;6.82;2.10;;;;;;;17.03;61.39;100941.50;4988915;28;20081;-74
2022/09/16 11:06:39;;;;;;;3.05;0.80;;;;;;;17.35;61.40;100943.97;4973702;28;20038;-76
2022/09/16 11:09:23;;;;;;;3.38;1.02;;;;;;;17.42;61.71;100935.34;4986622;28;20149;-75
2022/09/16 11:12:32;;;;;;;5.45;1.00;;;;;;;17.67;60.06;100925.84;4971226;28;20050;-75
2022/09/16 11:15:19;;;;;;;5.95;1.13;;;;;;;17.55;57.56;100938.63;4917409;29;20082;-74
2022/09/16 11:18:12;;;;;;;1.48;0.70;;;;;;;18.24;58.38;100926.88;4914551;29;20504;-75
2022/09/16 11:20:40;;;;;;;;;;;;;;;18.61;55.37;100930.47;4922608;29;20048;-75
2022/09/16 11:23:29;;;;;;;5.95;1.15;;;;;;;18.42;54.88;100929.66;4918541;29;19981;-74
2022/09/16 11:26:30;;;;;;;6.65;1.00;;;;;;;18.55;55.10;100936.44;4920282;29;20572;-74
2022/09/16 11:29:11;;;;;;;5.05;0.90;;;;;;;18.05;55.00;100939.38;4920761;29;20054;-74
2022/09/16 11:32:34;;;;;;;2.73;1.07;;;;;;;18.61;55.85;100924.22;4918439;29;20052;-76
2022/09/16 11:35:31;;;;;;;8.18;1.10;;;;;;;18.38;57.18;100940.78;4889873;29;20503;-76
2022/09/16 11:38:37;;;;;;;6.30;1.70;;;;;;;18.83;58.35;100941.97;4885228;29;20048;-77
2022/09/16 11:41:13;;;;;;;5.50;0.98;;;;;;;17.49;59.27;100972.41;4890419;29;20274;-78
2022/09/16 11:43:57;;;;;;;3.53;1.33;;;;;;;17.08;62.34;100965.34;4888097;29;20124;-77